sensor_id;sensor_type;location;lat;lon;timestamp;P1;durP1;ratioP1;P2;durP2;ratioP2
62037;SDS011;47991;42.974;12.082;2023-04-24T00:00:05;9.30;;;3.30;;
62037;SDS011;47991;42.974;12.082;2023-04-24T00:02:32;7.80;;;3.10;;
62037;SDS011;47991;42.974;12.082;2023-04-24T00:04:59;11.30;;;3.00;;
62037;SDS011;47991;42.974;12.082;2023-04-24T00:07:28;9.40;;;3.20;;
62037;SDS011;47991;42.974;12.082;2023-04-24T00:09:58;10.90;;;3.40;;
62037;SDS011;47991;42.974;12.082;2023-04-24T00:12:27;9.50;;;3.20;;
62037;SDS011;47991;42.974;12.082;2023-04-24T00:14:54;5.80;;;2.60;;
62037;SDS011;47991;42.974;12.082;2023-04-24T00:17:20;9.00;;;3.20;;
62037;SDS011;47991;42.974;12.082;2023-04-24T00:19:47;9.20;;;2.60;;
62037;SDS011;47991;42.974;12.082;2023-04-24T00:22:17;6.50;;;2.80;;
62037;SDS011;47991;42.974;12.082;2023-04-24T00:24:46;10.10;;;2.90;;
62037;SDS011;47991;42.974;12.082;2023-04-24T00:27:12;12.00;;;3.10;;
62037;SDS011;47991;42.974;12.082;2023-04-24T00:29:39;10.90;;;3.50;;
62037;SDS011;47991;42.974;12.082;2023-04-24T00:32:06;5.60;;;2.50;;
62037;SDS011;47991;42.974;12.082;2023-04-24T00:34:35;12.00;;;3.40;;
62037;SDS011;47991;42.974;12.082;2023-04-24T00:37:12;9.90;;;3.50;;
62037;SDS011;47991;42.974;12.082;2023-04-24T00:39:44;9.70;;;3.20;;
62037;SDS011;47991;42.974;12.082;2023-04-24T00:42:11;11.60;;;3.80;;
62037;SDS011;47991;42.974;12.082;2023-04-24T03:47:01;10.30;;;4.60;;
62037;SDS011;47991;42.974;12.082;2023-04-24T03:49:27;11.80;;;3.90;;
62037;SDS011;47991;42.974;12.082;2023-04-24T03:51:54;10.90;;;4.60;;
62037;SDS011;47991;42.974;12.082;2023-04-24T03:54:20;10.50;;;3.90;;
62037;SDS011;47991;42.974;12.082;2023-04-24T03:56:47;10.40;;;4.60;;
62037;SDS011;47991;42.974;12.082;2023-04-24T03:59:15;10.60;;;3.70;;
62037;SDS011;47991;42.974;12.082;2023-04-24T04:01:42;10.70;;;3.80;;
62037;SDS011;47991;42.974;12.082;2023-04-24T04:04:08;13.60;;;4.00;;
62037;SDS011;47991;42.974;12.082;2023-04-24T04:06:35;13.10;;;3.90;;
62037;SDS011;47991;42.974;12.082;2023-04-24T04:09:02;12.20;;;4.10;;
62037;SDS011;47991;42.974;12.082;2023-04-24T04:11:34;9.90;;;4.40;;
62037;SDS011;47991;42.974;12.082;2023-04-24T04:14:01;11.30;;;4.20;;
62037;SDS011;47991;42.974;12.082;2023-04-24T04:16:38;10.10;;;3.80;;
62037;SDS011;47991;42.974;12.082;2023-04-24T04:19:04;9.30;;;3.80;;
62037;SDS011;47991;42.974;12.082;2023-04-24T04:21:31;9.20;;;3.50;;
62037;SDS011;47991;42.974;12.082;2023-04-24T04:23:58;8.40;;;3.60;;
62037;SDS011;47991;42.974;12.082;2023-04-24T04:26:24;12.90;;;4.00;;
62037;SDS011;47991;42.974;12.082;2023-04-24T04:28:51;12.70;;;3.80;;
62037;SDS011;47991;42.974;12.082;2023-04-24T04:31:22;14.20;;;4.00;;
62037;SDS011;47991;42.974;12.082;2023-04-24T04:34:03;9.10;;;3.90;;
62037;SDS011;47991;42.974;12.082;2023-04-24T04:36:32;10.50;;;3.70;;
62037;SDS011;47991;42.974;12.082;2023-04-24T04:39:02;9.70;;;3.70;;
62037;SDS011;47991;42.974;12.082;2023-04-24T04:41:32;12.00;;;3.80;;
62037;SDS011;47991;42.974;12.082;2023-04-24T04:44:01;9.90;;;3.60;;
62037;SDS011;47991;42.974;12.082;2023-04-24T04:46:31;9.50;;;3.90;;
62037;SDS011;47991;42.974;12.082;2023-04-24T04:49:11;9.50;;;3.80;;
62037;SDS011;47991;42.974;12.082;2023-04-24T04:51:45;13.40;;;4.10;;
62037;SDS011;47991;42.974;12.082;2023-04-24T04:54:12;13.70;;;5.30;;
62037;SDS011;47991;42.974;12.082;2023-04-24T04:56:38;14.70;;;4.30;;
62037;SDS011;47991;42.974;12.082;2023-04-24T04:59:04;10.50;;;3.50;;
62037;SDS011;47991;42.974;12.082;2023-04-24T05:01:31;10.10;;;4.00;;
62037;SDS011;47991;42.974;12.082;2023-04-24T05:04:06;10.70;;;3.80;;
62037;SDS011;47991;42.974;12.082;2023-04-24T05:06:42;9.80;;;3.90;;
62037;SDS011;47991;42.974;12.082;2023-04-24T05:09:08;9.70;;;3.70;;
62037;SDS011;47991;42.974;12.082;2023-04-24T05:11:42;11.40;;;3.80;;
62037;SDS011;47991;42.974;12.082;2023-04-24T05:14:08;9.00;;;3.80;;
62037;SDS011;47991;42.974;12.082;2023-04-24T05:16:35;11.80;;;3.90;;
62037;SDS011;47991;42.974;12.082;2023-04-24T05:19:10;13.10;;;4.30;;
62037;SDS011;47991;42.974;12.082;2023-04-24T05:21:43;10.20;;;3.50;;
62037;SDS011;47991;42.974;12.082;2023-04-24T05:24:19;9.50;;;3.60;;
62037;SDS011;47991;42.974;12.082;2023-04-24T05:26:51;11.40;;;3.60;;
62037;SDS011;47991;42.974;12.082;2023-04-24T05:29:21;11.50;;;4.10;;
62037;SDS011;47991;42.974;12.082;2023-04-24T05:31:47;5.80;;;2.90;;
62037;SDS011;47991;42.974;12.082;2023-04-24T05:34:17;11.80;;;3.60;;
62037;SDS011;47991;42.974;12.082;2023-04-24T05:36:44;7.30;;;2.70;;
62037;SDS011;47991;42.974;12.082;2023-04-24T05:39:13;5.50;;;2.10;;
62037;SDS011;47991;42.974;12.082;2023-04-24T05:41:42;6.60;;;2.20;;
62037;SDS011;47991;42.974;12.082;2023-04-24T05:44:09;6.40;;;2.40;;
62037;SDS011;47991;42.974;12.082;2023-04-24T05:46:35;7.60;;;2.50;;
62037;SDS011;47991;42.974;12.082;2023-04-24T05:55:07;5.60;;;2.20;;
62037;SDS011;47991;42.974;12.082;2023-04-24T05:57:43;7.10;;;2.30;;
62037;SDS011;47991;42.974;12.082;2023-04-24T06:00:30;6.70;;;2.60;;
62037;SDS011;47991;42.974;12.082;2023-04-24T06:03:00;5.10;;;2.20;;
62037;SDS011;47991;42.974;12.082;2023-04-24T06:05:27;4.60;;;2.20;;
62037;SDS011;47991;42.974;12.082;2023-04-24T06:07:54;5.20;;;2.50;;
62037;SDS011;47991;42.974;12.082;2023-04-24T06:10:20;6.20;;;2.20;;
62037;SDS011;47991;42.974;12.082;2023-04-24T06:12:46;6.40;;;2.50;;
62037;SDS011;47991;42.974;12.082;2023-04-24T06:15:13;6.50;;;2.70;;
62037;SDS011;47991;42.974;12.082;2023-04-24T06:17:39;6.70;;;3.00;;
62037;SDS011;47991;42.974;12.082;2023-04-24T06:20:05;5.50;;;2.50;;
62037;SDS011;47991;42.974;12.082;2023-04-24T06:22:33;6.30;;;2.70;;
62037;SDS011;47991;42.974;12.082;2023-04-24T06:25:01;5.30;;;2.50;;
62037;SDS011;47991;42.974;12.082;2023-04-24T06:27:28;8.50;;;2.60;;
62037;SDS011;47991;42.974;12.082;2023-04-24T06:29:55;6.50;;;2.70;;
62037;SDS011;47991;42.974;12.082;2023-04-24T06:32:22;6.80;;;3.20;;
62037;SDS011;47991;42.974;12.082;2023-04-24T06:34:52;7.60;;;2.80;;
62037;SDS011;47991;42.974;12.082;2023-04-24T06:37:19;8.20;;;3.30;;
62037;SDS011;47991;42.974;12.082;2023-04-24T06:39:46;7.60;;;2.90;;
62037;SDS011;47991;42.974;12.082;2023-04-24T06:42:12;7.30;;;2.80;;
62037;SDS011;47991;42.974;12.082;2023-04-24T06:44:39;5.40;;;2.40;;
62037;SDS011;47991;42.974;12.082;2023-04-24T06:47:11;9.00;;;3.00;;
62037;SDS011;47991;42.974;12.082;2023-04-24T06:49:41;7.50;;;2.80;;
62037;SDS011;47991;42.974;12.082;2023-04-24T06:52:08;8.30;;;3.40;;
62037;SDS011;47991;42.974;12.082;2023-04-24T06:54:37;6.50;;;2.90;;
62037;SDS011;47991;42.974;12.082;2023-04-24T06:57:09;7.80;;;3.10;;
62037;SDS011;47991;42.974;12.082;2023-04-24T06:59:37;5.50;;;2.60;;
62037;SDS011;47991;42.974;12.082;2023-04-24T07:02:04;6.90;;;2.80;;
62037;SDS011;47991;42.974;12.082;2023-04-24T07:04:32;6.00;;;2.90;;
62037;SDS011;47991;42.974;12.082;2023-04-24T07:06:58;8.20;;;3.10;;
62037;SDS011;47991;42.974;12.082;2023-04-24T07:09:25;8.40;;;3.10;;
62037;SDS011;47991;42.974;12.082;2023-04-24T07:12:01;6.60;;;2.70;;
62037;SDS011;47991;42.974;12.082;2023-04-24T07:14:28;9.80;;;3.10;;
62037;SDS011;47991;42.974;12.082;2023-04-24T07:16:54;8.50;;;3.00;;
62037;SDS011;47991;42.974;12.082;2023-04-24T07:19:22;8.10;;;3.20;;
62037;SDS011;47991;42.974;12.082;2023-04-24T07:21:48;10.00;;;3.60;;
62037;SDS011;47991;42.974;12.082;2023-04-24T07:24:15;7.30;;;2.20;;
62037;SDS011;47991;42.974;12.082;2023-04-24T07:26:41;9.00;;;2.90;;
62037;SDS011;47991;42.974;12.082;2023-04-24T07:29:08;10.10;;;3.10;;
62037;SDS011;47991;42.974;12.082;2023-04-24T07:31:34;10.30;;;3.20;;
62037;SDS011;47991;42.974;12.082;2023-04-24T07:34:01;7.90;;;2.80;;
62037;SDS011;47991;42.974;12.082;2023-04-24T07:36:33;12.20;;;3.50;;
62037;SDS011;47991;42.974;12.082;2023-04-24T07:39:00;12.70;;;3.40;;
62037;SDS011;47991;42.974;12.082;2023-04-24T07:41:26;9.30;;;3.00;;
62037;SDS011;47991;42.974;12.082;2023-04-24T07:43:54;10.70;;;3.60;;
62037;SDS011;47991;42.974;12.082;2023-04-24T07:46:20;11.90;;;3.30;;
62037;SDS011;47991;42.974;12.082;2023-04-24T07:48:47;10.50;;;3.70;;
62037;SDS011;47991;42.974;12.082;2023-04-24T07:51:14;12.80;;;3.40;;
62037;SDS011;47991;42.974;12.082;2023-04-24T07:54:04;11.40;;;3.50;;
62037;SDS011;47991;42.974;12.082;2023-04-24T07:56:38;10.20;;;3.60;;
62037;SDS011;47991;42.974;12.082;2023-04-24T07:59:05;11.60;;;3.30;;
62037;SDS011;47991;42.974;12.082;2023-04-24T08:01:32;9.10;;;2.90;;
62037;SDS011;47991;42.974;12.082;2023-04-24T08:04:04;8.30;;;3.10;;
62037;SDS011;47991;42.974;12.082;2023-04-24T08:06:30;7.80;;;2.90;;
62037;SDS011;47991;42.974;12.082;2023-04-24T08:08:57;10.90;;;3.40;;
62037;SDS011;47991;42.974;12.082;2023-04-24T08:11:24;9.90;;;3.80;;
62037;SDS011;47991;42.974;12.082;2023-04-24T08:13:51;8.40;;;3.00;;
62037;SDS011;47991;42.974;12.082;2023-04-24T08:16:21;7.30;;;3.10;;
62037;SDS011;47991;42.974;12.082;2023-04-24T08:18:49;7.70;;;3.40;;
62037;SDS011;47991;42.974;12.082;2023-04-24T08:21:16;8.90;;;3.30;;
62037;SDS011;47991;42.974;12.082;2023-04-24T08:23:44;8.00;;;3.50;;
62037;SDS011;47991;42.974;12.082;2023-04-24T08:26:11;10.40;;;3.30;;
62037;SDS011;47991;42.974;12.082;2023-04-24T08:28:38;10.30;;;3.00;;
62037;SDS011;47991;42.974;12.082;2023-04-24T08:31:04;9.60;;;3.00;;
62037;SDS011;47991;42.974;12.082;2023-04-24T08:33:31;8.00;;;2.70;;
62037;SDS011;47991;42.974;12.082;2023-04-24T08:36:01;8.50;;;3.00;;
62037;SDS011;47991;42.974;12.082;2023-04-24T08:38:29;8.20;;;2.60;;
62037;SDS011;47991;42.974;12.082;2023-04-24T08:40:57;7.80;;;3.10;;
62037;SDS011;47991;42.974;12.082;2023-04-24T08:43:25;9.00;;;2.70;;
62037;SDS011;47991;42.974;12.082;2023-04-24T08:45:55;8.00;;;2.50;;
62037;SDS011;47991;42.974;12.082;2023-04-24T08:48:22;8.20;;;2.60;;
62037;SDS011;47991;42.974;12.082;2023-04-24T08:50:52;7.80;;;2.40;;
62037;SDS011;47991;42.974;12.082;2023-04-24T08:53:18;9.50;;;2.50;;
62037;SDS011;47991;42.974;12.082;2023-04-24T08:55:46;9.10;;;2.60;;
62037;SDS011;47991;42.974;12.082;2023-04-24T08:58:15;8.50;;;2.30;;
62037;SDS011;47991;42.974;12.082;2023-04-24T09:00:43;9.20;;;2.20;;
62037;SDS011;47991;42.974;12.082;2023-04-24T09:03:15;9.90;;;2.20;;
62037;SDS011;47991;42.974;12.082;2023-04-24T09:08:12;6.10;;;2.40;;
62037;SDS011;47991;42.974;12.082;2023-04-24T09:10:40;10.90;;;2.50;;
62037;SDS011;47991;42.974;12.082;2023-04-24T09:13:06;9.50;;;2.20;;
62037;SDS011;47991;42.974;12.082;2023-04-24T09:15:38;8.10;;;2.70;;
62037;SDS011;47991;42.974;12.082;2023-04-24T09:18:04;13.60;;;3.30;;
62037;SDS011;47991;42.974;12.082;2023-04-24T09:20:31;7.00;;;2.60;;
62037;SDS011;47991;42.974;12.082;2023-04-24T09:22:59;6.80;;;2.70;;
62037;SDS011;47991;42.974;12.082;2023-04-24T09:25:34;9.60;;;2.60;;
62037;SDS011;47991;42.974;12.082;2023-04-24T09:28:04;7.70;;;2.50;;
62037;SDS011;47991;42.974;12.082;2023-04-24T09:30:34;13.00;;;3.50;;
62037;SDS011;47991;42.974;12.082;2023-04-24T09:33:10;7.70;;;2.80;;
62037;SDS011;47991;42.974;12.082;2023-04-24T09:35:41;9.50;;;3.20;;
62037;SDS011;47991;42.974;12.082;2023-04-24T09:38:14;8.70;;;3.00;;
62037;SDS011;47991;42.974;12.082;2023-04-24T09:40:40;13.00;;;3.50;;
62037;SDS011;47991;42.974;12.082;2023-04-24T09:43:09;11.10;;;3.00;;
62037;SDS011;47991;42.974;12.082;2023-04-24T09:45:37;9.70;;;2.90;;
62037;SDS011;47991;42.974;12.082;2023-04-24T09:48:05;9.80;;;2.90;;
62037;SDS011;47991;42.974;12.082;2023-04-24T09:50:35;9.30;;;3.00;;
62037;SDS011;47991;42.974;12.082;2023-04-24T09:53:02;9.00;;;2.80;;
62037;SDS011;47991;42.974;12.082;2023-04-24T09:55:30;11.60;;;3.50;;
62037;SDS011;47991;42.974;12.082;2023-04-24T09:57:59;10.60;;;3.40;;
62037;SDS011;47991;42.974;12.082;2023-04-24T10:00:27;12.40;;;3.80;;
62037;SDS011;47991;42.974;12.082;2023-04-24T10:03:02;9.10;;;2.80;;
62037;SDS011;47991;42.974;12.082;2023-04-24T10:05:31;11.20;;;3.20;;
62037;SDS011;47991;42.974;12.082;2023-04-24T10:08:07;8.10;;;2.90;;
62037;SDS011;47991;42.974;12.082;2023-04-24T10:10:37;7.50;;;2.40;;
62037;SDS011;47991;42.974;12.082;2023-04-24T10:13:07;9.10;;;3.60;;
62037;SDS011;47991;42.974;12.082;2023-04-24T10:15:35;9.60;;;3.10;;
62037;SDS011;47991;42.974;12.082;2023-04-24T10:18:04;5.30;;;1.60;;
62037;SDS011;47991;42.974;12.082;2023-04-24T10:20:32;7.70;;;2.90;;
62037;SDS011;47991;42.974;12.082;2023-04-24T10:22:59;8.50;;;2.50;;
62037;SDS011;47991;42.974;12.082;2023-04-24T10:25:30;7.10;;;1.50;;
62037;SDS011;47991;42.974;12.082;2023-04-24T10:28:06;4.20;;;1.40;;
62037;SDS011;47991;42.974;12.082;2023-04-24T10:30:40;5.60;;;1.40;;
62037;SDS011;47991;42.974;12.082;2023-04-24T10:33:10;4.70;;;1.30;;
62037;SDS011;47991;42.974;12.082;2023-04-24T10:35:39;4.30;;;1.40;;
62037;SDS011;47991;42.974;12.082;2023-04-24T10:38:14;3.90;;;1.50;;
62037;SDS011;47991;42.974;12.082;2023-04-24T10:40:44;3.40;;;1.50;;
62037;SDS011;47991;42.974;12.082;2023-04-24T10:43:10;4.70;;;1.60;;
62037;SDS011;47991;42.974;12.082;2023-04-24T10:45:45;3.60;;;1.20;;
62037;SDS011;47991;42.974;12.082;2023-04-24T10:48:29;2.50;;;1.00;;
62037;SDS011;47991;42.974;12.082;2023-04-24T10:50:58;6.40;;;1.50;;
62037;SDS011;47991;42.974;12.082;2023-04-24T10:53:31;6.10;;;1.70;;
62037;SDS011;47991;42.974;12.082;2023-04-24T10:56:04;6.60;;;1.40;;
62037;SDS011;47991;42.974;12.082;2023-04-24T10:58:41;4.30;;;1.20;;
62037;SDS011;47991;42.974;12.082;2023-04-24T11:04:10;7.00;;;1.40;;
62037;SDS011;47991;42.974;12.082;2023-04-24T11:06:40;6.20;;;1.50;;
62037;SDS011;47991;42.974;12.082;2023-04-24T11:09:07;3.70;;;1.30;;
62037;SDS011;47991;42.974;12.082;2023-04-24T11:11:45;2.70;;;1.10;;
62037;SDS011;47991;42.974;12.082;2023-04-24T11:14:16;4.80;;;1.40;;
62037;SDS011;47991;42.974;12.082;2023-04-24T11:16:54;4.30;;;1.40;;
62037;SDS011;47991;42.974;12.082;2023-04-24T11:19:27;5.40;;;1.50;;
62037;SDS011;47991;42.974;12.082;2023-04-24T11:24:39;5.10;;;1.30;;
62037;SDS011;47991;42.974;12.082;2023-04-24T11:27:07;2.40;;;1.00;;
62037;SDS011;47991;42.974;12.082;2023-04-24T11:32:24;4.20;;;1.20;;
62037;SDS011;47991;42.974;12.082;2023-04-24T11:35:02;2.00;;;1.20;;
62037;SDS011;47991;42.974;12.082;2023-04-24T11:37:43;4.50;;;1.50;;
62037;SDS011;47991;42.974;12.082;2023-04-24T11:40:15;7.20;;;1.40;;
62037;SDS011;47991;42.974;12.082;2023-04-24T11:45:16;1.60;;;0.80;;
62037;SDS011;47991;42.974;12.082;2023-04-24T11:47:47;3.30;;;1.00;;
62037;SDS011;47991;42.974;12.082;2023-04-24T11:50:17;3.60;;;1.30;;
62037;SDS011;47991;42.974;12.082;2023-04-24T11:52:56;5.80;;;1.40;;
62037;SDS011;47991;42.974;12.082;2023-04-24T11:55:28;4.60;;;1.50;;
62037;SDS011;47991;42.974;12.082;2023-04-24T11:57:56;7.20;;;1.60;;
62037;SDS011;47991;42.974;12.082;2023-04-24T12:00:27;3.60;;;1.30;;
62037;SDS011;47991;42.974;12.082;2023-04-24T12:03:14;5.30;;;1.40;;
62037;SDS011;47991;42.974;12.082;2023-04-24T12:05:43;4.70;;;1.50;;
62037;SDS011;47991;42.974;12.082;2023-04-24T12:08:29;4.80;;;1.50;;
62037;SDS011;47991;42.974;12.082;2023-04-24T12:10:55;5.00;;;1.30;;
62037;SDS011;47991;42.974;12.082;2023-04-24T12:13:36;4.90;;;1.50;;
62037;SDS011;47991;42.974;12.082;2023-04-24T12:16:03;5.20;;;1.20;;
62037;SDS011;47991;42.974;12.082;2023-04-24T12:18:33;4.70;;;1.30;;
62037;SDS011;47991;42.974;12.082;2023-04-24T12:21:23;7.20;;;1.60;;
62037;SDS011;47991;42.974;12.082;2023-04-24T12:23:54;4.50;;;1.60;;
62037;SDS011;47991;42.974;12.082;2023-04-24T12:26:21;1.90;;;0.90;;
62037;SDS011;47991;42.974;12.082;2023-04-24T12:28:51;3.70;;;1.20;;
62037;SDS011;47991;42.974;12.082;2023-04-24T12:31:17;6.40;;;1.30;;
62037;SDS011;47991;42.974;12.082;2023-04-24T12:33:48;2.80;;;1.10;;
62037;SDS011;47991;42.974;12.082;2023-04-24T12:36:13;2.60;;;1.20;;
62037;SDS011;47991;42.974;12.082;2023-04-24T12:38:43;2.80;;;1.10;;
62037;SDS011;47991;42.974;12.082;2023-04-24T12:41:18;5.40;;;1.50;;
62037;SDS011;47991;42.974;12.082;2023-04-24T12:43:51;3.60;;;1.20;;
62037;SDS011;47991;42.974;12.082;2023-04-24T12:46:18;4.40;;;1.20;;
62037;SDS011;47991;42.974;12.082;2023-04-24T12:48:44;4.20;;;1.20;;
62037;SDS011;47991;42.974;12.082;2023-04-24T12:51:16;5.20;;;1.30;;
62037;SDS011;47991;42.974;12.082;2023-04-24T12:53:42;5.20;;;1.20;;
62037;SDS011;47991;42.974;12.082;2023-04-24T12:56:09;4.00;;;1.40;;
62037;SDS011;47991;42.974;12.082;2023-04-24T12:58:37;4.40;;;1.40;;
62037;SDS011;47991;42.974;12.082;2023-04-24T13:01:07;5.10;;;1.20;;
62037;SDS011;47991;42.974;12.082;2023-04-24T13:03:36;7.10;;;1.40;;
62037;SDS011;47991;42.974;12.082;2023-04-24T13:06:16;4.10;;;1.40;;
62037;SDS011;47991;42.974;12.082;2023-04-24T13:08:43;6.20;;;1.60;;
62037;SDS011;47991;42.974;12.082;2023-04-24T13:11:10;6.10;;;1.90;;
62037;SDS011;47991;42.974;12.082;2023-04-24T13:13:39;5.10;;;1.20;;
62037;SDS011;47991;42.974;12.082;2023-04-24T13:16:05;5.50;;;1.40;;
62037;SDS011;47991;42.974;12.082;2023-04-24T13:18:31;5.90;;;1.80;;
62037;SDS011;47991;42.974;12.082;2023-04-24T13:21:00;6.00;;;1.50;;
62037;SDS011;47991;42.974;12.082;2023-04-24T13:23:26;8.50;;;1.80;;
62037;SDS011;47991;42.974;12.082;2023-04-24T13:25:53;5.50;;;1.70;;
62037;SDS011;47991;42.974;12.082;2023-04-24T13:28:23;5.50;;;1.70;;
62037;SDS011;47991;42.974;12.082;2023-04-24T13:30:50;5.60;;;1.30;;
62037;SDS011;47991;42.974;12.082;2023-04-24T13:33:17;5.80;;;1.70;;
62037;SDS011;47991;42.974;12.082;2023-04-24T13:35:46;4.40;;;1.40;;
62037;SDS011;47991;42.974;12.082;2023-04-24T13:38:20;4.60;;;1.40;;
62037;SDS011;47991;42.974;12.082;2023-04-24T13:40:47;5.80;;;1.70;;
62037;SDS011;47991;42.974;12.082;2023-04-24T13:43:13;4.80;;;1.40;;
62037;SDS011;47991;42.974;12.082;2023-04-24T13:45:39;7.40;;;2.20;;
62037;SDS011;47991;42.974;12.082;2023-04-24T13:48:05;7.50;;;1.80;;
62037;SDS011;47991;42.974;12.082;2023-04-24T13:50:32;5.90;;;1.70;;
62037;SDS011;47991;42.974;12.082;2023-04-24T13:52:58;6.60;;;1.80;;
62037;SDS011;47991;42.974;12.082;2023-04-24T13:55:25;6.30;;;1.80;;
62037;SDS011;47991;42.974;12.082;2023-04-24T13:57:51;4.50;;;1.50;;
62037;SDS011;47991;42.974;12.082;2023-04-24T14:00:20;7.90;;;2.00;;
62037;SDS011;47991;42.974;12.082;2023-04-24T14:02:46;6.40;;;1.70;;
62037;SDS011;47991;42.974;12.082;2023-04-24T14:05:13;9.10;;;1.90;;
62037;SDS011;47991;42.974;12.082;2023-04-24T14:07:41;8.20;;;1.70;;
62037;SDS011;47991;42.974;12.082;2023-04-24T14:10:07;8.80;;;1.90;;
62037;SDS011;47991;42.974;12.082;2023-04-24T14:12:37;8.00;;;2.00;;
62037;SDS011;47991;42.974;12.082;2023-04-24T14:15:07;8.20;;;2.00;;
62037;SDS011;47991;42.974;12.082;2023-04-24T14:17:34;7.70;;;1.70;;
62037;SDS011;47991;42.974;12.082;2023-04-24T14:20:01;9.40;;;2.00;;
62037;SDS011;47991;42.974;12.082;2023-04-24T14:22:30;5.70;;;1.50;;
62037;SDS011;47991;42.974;12.082;2023-04-24T14:24:59;6.30;;;1.70;;
62037;SDS011;47991;42.974;12.082;2023-04-24T14:27:28;7.10;;;1.90;;
62037;SDS011;47991;42.974;12.082;2023-04-24T14:30:09;8.50;;;2.00;;
62037;SDS011;47991;42.974;12.082;2023-04-24T14:32:36;8.20;;;1.70;;
62037;SDS011;47991;42.974;12.082;2023-04-24T14:35:04;12.90;;;2.10;;
62037;SDS011;47991;42.974;12.082;2023-04-24T14:37:41;8.20;;;1.90;;
62037;SDS011;47991;42.974;12.082;2023-04-24T14:40:18;6.40;;;1.60;;
62037;SDS011;47991;42.974;12.082;2023-04-24T14:42:44;6.10;;;1.70;;
62037;SDS011;47991;42.974;12.082;2023-04-24T14:45:11;8.10;;;2.10;;
62037;SDS011;47991;42.974;12.082;2023-04-24T14:47:40;7.30;;;2.00;;
62037;SDS011;47991;42.974;12.082;2023-04-24T14:50:09;7.50;;;1.50;;
62037;SDS011;47991;42.974;12.082;2023-04-24T14:52:40;6.50;;;1.70;;
62037;SDS011;47991;42.974;12.082;2023-04-24T14:55:06;6.80;;;1.60;;
62037;SDS011;47991;42.974;12.082;2023-04-24T14:57:33;7.10;;;2.00;;
62037;SDS011;47991;42.974;12.082;2023-04-24T15:00:04;8.30;;;1.90;;
62037;SDS011;47991;42.974;12.082;2023-04-24T15:02:34;5.20;;;1.50;;
62037;SDS011;47991;42.974;12.082;2023-04-24T15:05:02;7.50;;;1.80;;
62037;SDS011;47991;42.974;12.082;2023-04-24T15:07:29;8.40;;;2.00;;
62037;SDS011;47991;42.974;12.082;2023-04-24T15:09:59;7.40;;;1.90;;
62037;SDS011;47991;42.974;12.082;2023-04-24T15:12:29;6.80;;;1.90;;
62037;SDS011;47991;42.974;12.082;2023-04-24T15:14:57;7.80;;;2.50;;
62037;SDS011;47991;42.974;12.082;2023-04-24T15:17:25;8.40;;;1.90;;
62037;SDS011;47991;42.974;12.082;2023-04-24T15:19:52;8.30;;;2.00;;
62037;SDS011;47991;42.974;12.082;2023-04-24T15:22:18;7.70;;;2.00;;
62037;SDS011;47991;42.974;12.082;2023-04-24T15:24:44;6.10;;;1.50;;
62037;SDS011;47991;42.974;12.082;2023-04-24T15:27:10;13.90;;;2.60;;
62037;SDS011;47991;42.974;12.082;2023-04-24T15:29:37;7.20;;;2.00;;
62037;SDS011;47991;42.974;12.082;2023-04-24T15:32:03;8.50;;;1.80;;
62037;SDS011;47991;42.974;12.082;2023-04-24T15:34:32;6.70;;;1.70;;
62037;SDS011;47991;42.974;12.082;2023-04-24T15:36:58;5.30;;;1.60;;
62037;SDS011;47991;42.974;12.082;2023-04-24T15:39:26;5.30;;;1.80;;
62037;SDS011;47991;42.974;12.082;2023-04-24T15:41:52;5.20;;;1.80;;
62037;SDS011;47991;42.974;12.082;2023-04-24T15:44:20;8.70;;;1.80;;
62037;SDS011;47991;42.974;12.082;2023-04-24T15:46:47;8.50;;;1.70;;
62037;SDS011;47991;42.974;12.082;2023-04-24T15:49:14;8.00;;;1.80;;
62037;SDS011;47991;42.974;12.082;2023-04-24T15:51:43;7.40;;;1.80;;
62037;SDS011;47991;42.974;12.082;2023-04-24T15:54:09;7.50;;;1.50;;
62037;SDS011;47991;42.974;12.082;2023-04-24T15:56:37;8.20;;;1.70;;
62037;SDS011;47991;42.974;12.082;2023-04-24T15:59:08;7.00;;;1.60;;
62037;SDS011;47991;42.974;12.082;2023-04-24T16:01:34;6.50;;;1.80;;
62037;SDS011;47991;42.974;12.082;2023-04-24T16:04:01;9.50;;;2.00;;
62037;SDS011;47991;42.974;12.082;2023-04-24T16:06:27;8.00;;;2.00;;
62037;SDS011;47991;42.974;12.082;2023-04-24T16:08:57;6.90;;;1.80;;
62037;SDS011;47991;42.974;12.082;2023-04-24T16:11:23;7.20;;;1.60;;
62037;SDS011;47991;42.974;12.082;2023-04-24T16:13:49;8.40;;;1.70;;
62037;SDS011;47991;42.974;12.082;2023-04-24T16:16:16;9.90;;;1.70;;
62037;SDS011;47991;42.974;12.082;2023-04-24T16:18:42;9.10;;;1.90;;
62037;SDS011;47991;42.974;12.082;2023-04-24T16:21:08;7.80;;;1.70;;
62037;SDS011;47991;42.974;12.082;2023-04-24T16:23:37;8.00;;;2.50;;
62037;SDS011;47991;42.974;12.082;2023-04-24T16:26:03;8.40;;;2.10;;
62037;SDS011;47991;42.974;12.082;2023-04-24T16:28:30;8.30;;;1.70;;
62037;SDS011;47991;42.974;12.082;2023-04-24T16:30:56;6.60;;;1.50;;
62037;SDS011;47991;42.974;12.082;2023-04-24T16:33:23;8.10;;;1.60;;
62037;SDS011;47991;42.974;12.082;2023-04-24T16:35:51;10.10;;;1.80;;
62037;SDS011;47991;42.974;12.082;2023-04-24T16:38:17;7.50;;;2.00;;
62037;SDS011;47991;42.974;12.082;2023-04-24T16:40:43;9.60;;;1.30;;
62037;SDS011;47991;42.974;12.082;2023-04-24T16:43:09;8.40;;;1.90;;
62037;SDS011;47991;42.974;12.082;2023-04-24T16:45:36;8.30;;;1.80;;
62037;SDS011;47991;42.974;12.082;2023-04-24T16:48:02;6.80;;;1.70;;
62037;SDS011;47991;42.974;12.082;2023-04-24T16:50:28;8.40;;;1.90;;
62037;SDS011;47991;42.974;12.082;2023-04-24T16:52:54;7.10;;;2.10;;
62037;SDS011;47991;42.974;12.082;2023-04-24T16:55:24;8.40;;;1.80;;
62037;SDS011;47991;42.974;12.082;2023-04-24T17:06:34;9.40;;;2.10;;
62037;SDS011;47991;42.974;12.082;2023-04-24T17:09:00;8.60;;;1.50;;
62037;SDS011;47991;42.974;12.082;2023-04-24T17:11:36;9.50;;;2.20;;
62037;SDS011;47991;42.974;12.082;2023-04-24T17:14:04;7.10;;;1.70;;
62037;SDS011;47991;42.974;12.082;2023-04-24T17:16:31;6.40;;;1.60;;
62037;SDS011;47991;42.974;12.082;2023-04-24T17:18:58;4.70;;;1.50;;
62037;SDS011;47991;42.974;12.082;2023-04-24T17:21:27;6.70;;;1.60;;
62037;SDS011;47991;42.974;12.082;2023-04-24T17:24:00;6.50;;;1.50;;
62037;SDS011;47991;42.974;12.082;2023-04-24T17:26:28;6.40;;;1.80;;
62037;SDS011;47991;42.974;12.082;2023-04-24T17:28:59;6.20;;;1.60;;
62037;SDS011;47991;42.974;12.082;2023-04-24T17:31:28;5.80;;;1.50;;
62037;SDS011;47991;42.974;12.082;2023-04-24T17:33:57;5.20;;;1.40;;
62037;SDS011;47991;42.974;12.082;2023-04-24T17:36:24;6.70;;;1.70;;
62037;SDS011;47991;42.974;12.082;2023-04-24T17:38:51;8.60;;;1.50;;
62037;SDS011;47991;42.974;12.082;2023-04-24T17:41:17;7.00;;;2.10;;
62037;SDS011;47991;42.974;12.082;2023-04-24T17:43:44;7.60;;;2.10;;
62037;SDS011;47991;42.974;12.082;2023-04-24T17:46:10;7.60;;;2.20;;
62037;SDS011;47991;42.974;12.082;2023-04-24T17:48:38;7.90;;;2.50;;
62037;SDS011;47991;42.974;12.082;2023-04-24T17:51:07;7.30;;;2.10;;
62037;SDS011;47991;42.974;12.082;2023-04-24T17:53:33;8.90;;;1.90;;
62037;SDS011;47991;42.974;12.082;2023-04-24T17:56:01;5.80;;;1.60;;
62037;SDS011;47991;42.974;12.082;2023-04-24T17:58:28;9.60;;;1.80;;
62037;SDS011;47991;42.974;12.082;2023-04-24T18:03:25;6.30;;;1.40;;
62037;SDS011;47991;42.974;12.082;2023-04-24T18:05:52;7.00;;;1.70;;
62037;SDS011;47991;42.974;12.082;2023-04-24T18:10:58;7.50;;;1.70;;
62037;SDS011;47991;42.974;12.082;2023-04-24T18:13:36;9.00;;;2.40;;
62037;SDS011;47991;42.974;12.082;2023-04-24T18:16:09;5.80;;;1.30;;
62037;SDS011;47991;42.974;12.082;2023-04-24T18:18:36;4.60;;;1.40;;